createdAt,value
2017-12-31T00:00:42.894Z,12.95
2017-12-31T00:01:44.313Z,12.96
2017-12-31T00:02:45.721Z,12.87
2017-12-31T00:03:47.169Z,12.78
2017-12-31T00:04:48.596Z,12.79
2017-12-31T00:05:50.017Z,13.02
2017-12-31T00:06:51.430Z,12.93
2017-12-31T00:07:52.863Z,12.89
2017-12-31T00:08:54.276Z,12.97
2017-12-31T00:09:55.688Z,12.95
2017-12-31T00:10:57.109Z,12.82
2017-12-31T00:11:58.516Z,12.95
2017-12-31T00:12:59.944Z,12.78
2017-12-31T00:14:01.354Z,12.82
2017-12-31T00:15:02.774Z,12.85
2017-12-31T00:16:04.187Z,12.78
2017-12-31T00:17:05.609Z,12.87
2017-12-31T00:18:07.026Z,12.82
2017-12-31T00:19:08.436Z,12.81
2017-12-31T00:20:09.858Z,12.79
2017-12-31T00:21:11.277Z,12.92
2017-12-31T00:22:12.708Z,12.79
2017-12-31T00:23:14.140Z,12.93
2017-12-31T00:24:15.562Z,12.84
2017-12-31T00:25:16.975Z,12.88
2017-12-31T00:26:18.391Z,12.78
2017-12-31T00:27:19.808Z,12.75
2017-12-31T00:28:21.225Z,12.96
2017-12-31T00:29:22.647Z,12.79
2017-12-31T00:30:24.071Z,12.75
2017-12-31T00:31:25.483Z,12.79
2017-12-31T00:32:26.903Z,12.75
2017-12-31T00:33:28.319Z,12.69
2017-12-31T00:34:29.746Z,12.70
2017-12-31T00:35:31.159Z,12.57
2017-12-31T00:36:32.581Z,12.54
2017-12-31T00:37:33.996Z,12.66
2017-12-31T00:38:35.426Z,12.63
2017-12-31T00:39:36.842Z,12.51
2017-12-31T00:40:38.257Z,12.59
2017-12-31T00:41:39.674Z,12.62
2017-12-31T00:42:41.087Z,12.46
2017-12-31T00:43:42.504Z,12.49
2017-12-31T00:44:43.920Z,12.46
2017-12-31T00:45:45.341Z,12.48
2017-12-31T00:46:46.756Z,12.31
2017-12-31T00:47:48.169Z,12.46
2017-12-31T00:48:49.622Z,12.45
2017-12-31T00:49:51.038Z,12.45
2017-12-31T00:50:52.448Z,12.46
2017-12-31T00:51:53.867Z,12.48
2017-12-31T00:52:55.290Z,12.39
2017-12-31T00:53:56.706Z,12.45
2017-12-31T00:54:58.110Z,12.42
2017-12-31T00:55:59.540Z,12.20
2017-12-31T00:57:00.958Z,12.37
2017-12-31T00:58:02.387Z,12.45
2017-12-31T00:59:03.813Z,12.34
2017-12-31T01:00:05.226Z,12.34
2017-12-31T01:01:06.644Z,12.21
2017-12-31T01:02:08.113Z,12.37
2017-12-31T01:03:09.526Z,12.34
2017-12-31T01:04:10.940Z,12.31
2017-12-31T01:05:12.364Z,12.39
2017-12-31T01:06:13.787Z,12.16
2017-12-31T01:07:15.205Z,12.26
2017-12-31T01:08:16.623Z,12.44
2017-12-31T01:09:18.029Z,12.34
2017-12-31T01:10:19.441Z,12.20
2017-12-31T01:11:20.867Z,12.20
2017-12-31T01:12:22.281Z,12.23
2017-12-31T01:13:23.687Z,12.27
2017-12-31T01:14:25.098Z,12.20
2017-12-31T01:15:26.516Z,12.11
2017-12-31T01:16:27.940Z,12.24
2017-12-31T01:17:29.364Z,12.23
2017-12-31T01:18:30.781Z,12.21
2017-12-31T01:19:32.191Z,12.23
2017-12-31T01:20:33.618Z,12.12
2017-12-31T01:21:35.040Z,12.21
2017-12-31T01:22:36.454Z,12.24
2017-12-31T01:23:37.875Z,12.16
2017-12-31T01:24:39.287Z,12.21
2017-12-31T01:25:40.708Z,12.15
2017-12-31T01:26:42.130Z,12.23
2017-12-31T01:27:43.543Z,12.13
2017-12-31T01:28:44.960Z,12.08
2017-12-31T01:29:46.371Z,12.06
2017-12-31T01:30:47.780Z,12.20
2017-12-31T01:31:49.209Z,12.21
2017-12-31T01:32:50.630Z,12.09
2017-12-31T01:33:52.045Z,12.13
2017-12-31T01:34:53.466Z,12.20
2017-12-31T01:35:54.879Z,12.08
2017-12-31T01:36:56.306Z,12.06
2017-12-31T01:37:57.736Z,12.15
2017-12-31T01:38:59.142Z,12.06
2017-12-31T01:40:00.556Z,12.05
2017-12-31T01:41:01.972Z,12.12
2017-12-31T01:42:03.400Z,12.06
2017-12-31T01:43:04.819Z,12.06
2017-12-31T01:44:06.249Z,12.06
2017-12-31T01:45:07.668Z,12.16
2017-12-31T01:46:09.072Z,12.09
2017-12-31T01:47:10.491Z,12.09
2017-12-31T01:48:11.926Z,11.97
2017-12-31T01:49:13.343Z,11.89
2017-12-31T01:50:14.750Z,11.96
2017-12-31T01:51:16.171Z,11.96
2017-12-31T01:52:17.590Z,11.80
2017-12-31T01:53:18.998Z,11.82
2017-12-31T01:54:20.425Z,11.67
2017-12-31T01:55:21.841Z,11.75
2017-12-31T01:56:23.266Z,11.72
2017-12-31T01:57:24.677Z,11.74
2017-12-31T01:58:26.107Z,11.75
2017-12-31T01:59:27.513Z,11.80
2017-12-31T02:00:28.931Z,11.75
2017-12-31T02:01:30.335Z,11.87
2017-12-31T02:02:31.758Z,11.93
2017-12-31T02:03:33.188Z,11.93
2017-12-31T02:04:34.603Z,11.80
2017-12-31T02:05:36.032Z,11.90
2017-12-31T02:06:37.442Z,11.74
2017-12-31T02:07:38.864Z,11.71
2017-12-31T02:08:40.276Z,11.83
2017-12-31T02:09:41.693Z,11.90
2017-12-31T02:10:43.109Z,11.75
2017-12-31T02:11:44.529Z,11.85
2017-12-31T02:12:45.988Z,11.78
2017-12-31T02:13:47.397Z,11.68
2017-12-31T02:14:48.819Z,11.61
2017-12-31T02:15:50.222Z,11.68
2017-12-31T02:16:51.641Z,11.67
2017-12-31T02:17:53.057Z,11.90
2017-12-31T02:18:54.474Z,11.57
2017-12-31T02:19:55.890Z,11.72
2017-12-31T02:20:57.302Z,11.87
2017-12-31T02:21:58.727Z,11.87
2017-12-31T02:23:00.145Z,11.83
2017-12-31T02:24:01.555Z,11.75
2017-12-31T02:25:02.973Z,11.75
2017-12-31T02:26:04.390Z,11.75
2017-12-31T02:27:05.811Z,11.75
2017-12-31T02:28:07.226Z,11.74
2017-12-31T02:29:08.648Z,11.83
2017-12-31T02:30:10.062Z,11.85
2017-12-31T02:31:11.493Z,11.89
2017-12-31T02:32:12.918Z,11.87
2017-12-31T02:33:14.329Z,11.85
2017-12-31T02:34:15.741Z,11.85
2017-12-31T02:35:17.167Z,11.77
2017-12-31T02:36:18.576Z,11.75
2017-12-31T02:37:19.993Z,11.77
2017-12-31T02:38:21.407Z,11.80
2017-12-31T02:39:22.820Z,11.87
2017-12-31T02:40:24.239Z,11.80
2017-12-31T02:41:25.656Z,11.70
2017-12-31T02:42:27.072Z,11.72
2017-12-31T02:43:28.485Z,11.86
2017-12-31T02:44:29.895Z,11.57
2017-12-31T02:45:31.308Z,11.61
2017-12-31T02:46:32.737Z,11.59
2017-12-31T02:47:34.147Z,11.61
2017-12-31T02:48:35.559Z,11.52
2017-12-31T02:49:36.973Z,11.59
2017-12-31T02:50:38.402Z,11.64
2017-12-31T02:51:39.818Z,11.77
2017-12-31T02:52:41.232Z,11.77
2017-12-31T02:53:42.689Z,11.77
2017-12-31T02:54:44.058Z,11.77
2017-12-31T02:55:45.489Z,11.61
2017-12-31T02:56:46.890Z,11.61
2017-12-31T02:57:48.302Z,11.62
2017-12-31T02:58:49.719Z,11.49
2017-12-31T02:59:51.128Z,11.62
2017-12-31T03:00:52.542Z,11.64
2017-12-31T03:01:53.962Z,11.67
2017-12-31T03:02:55.444Z,11.78
2017-12-31T03:03:56.852Z,11.74
2017-12-31T03:04:58.273Z,11.59
2017-12-31T03:05:59.686Z,11.75
2017-12-31T03:07:01.099Z,11.57
2017-12-31T03:08:02.526Z,11.75
2017-12-31T03:09:03.936Z,11.85
2017-12-31T03:10:05.348Z,11.77
2017-12-31T03:11:06.765Z,11.82
2017-12-31T03:12:08.183Z,11.75
2017-12-31T03:13:09.600Z,11.61
2017-12-31T03:14:11.030Z,11.72
2017-12-31T03:15:12.458Z,11.59
2017-12-31T03:16:13.880Z,11.65
2017-12-31T03:17:15.295Z,11.52
2017-12-31T03:18:16.719Z,11.50
2017-12-31T03:19:18.152Z,11.41
2017-12-31T03:20:19.562Z,11.35
2017-12-31T03:21:20.977Z,11.29
2017-12-31T03:22:22.396Z,11.39
2017-12-31T03:23:23.811Z,11.36
2017-12-31T03:24:25.226Z,11.43
2017-12-31T03:25:26.639Z,11.43
2017-12-31T03:26:28.060Z,11.28
2017-12-31T03:27:29.465Z,11.43
2017-12-31T03:28:30.879Z,11.32
2017-12-31T03:29:32.301Z,11.31
2017-12-31T03:30:33.718Z,11.21
2017-12-31T03:31:35.132Z,11.21
2017-12-31T03:32:36.549Z,11.31
2017-12-31T03:33:37.969Z,11.24
2017-12-31T03:34:39.379Z,11.32
2017-12-31T03:35:40.798Z,11.34
2017-12-31T03:36:42.209Z,11.29
2017-12-31T03:37:43.622Z,11.29
2017-12-31T03:38:45.044Z,11.32
2017-12-31T03:39:46.457Z,11.29
2017-12-31T03:40:47.878Z,11.31
2017-12-31T03:41:49.290Z,11.24
2017-12-31T03:42:50.712Z,11.31
2017-12-31T03:43:52.126Z,11.16
2017-12-31T03:44:53.545Z,11.16
2017-12-31T03:45:54.958Z,11.27
2017-12-31T03:46:56.376Z,11.27
2017-12-31T03:47:57.805Z,11.13
2017-12-31T03:48:59.227Z,11.11
2017-12-31T03:50:00.640Z,11.06
2017-12-31T03:51:02.056Z,11.16
2017-12-31T03:52:03.473Z,11.11
2017-12-31T03:53:04.891Z,11.01
2017-12-31T03:54:06.300Z,11.06
2017-12-31T03:55:07.713Z,11.16
2017-12-31T03:56:09.127Z,11.09
2017-12-31T03:57:10.542Z,11.03
2017-12-31T03:58:11.962Z,11.13
2017-12-31T03:59:13.377Z,11.13
2017-12-31T04:00:14.786Z,11.21
2017-12-31T04:01:16.200Z,11.11
2017-12-31T04:02:17.613Z,11.11
2017-12-31T04:03:19.026Z,11.16
2017-12-31T04:04:20.443Z,11.16
2017-12-31T04:05:21.865Z,11.20
2017-12-31T04:06:23.282Z,11.17
2017-12-31T04:07:24.705Z,11.09
2017-12-31T04:08:26.120Z,11.14
2017-12-31T04:09:27.524Z,11.27
2017-12-31T04:10:28.946Z,11.24
2017-12-31T04:11:30.356Z,11.17
2017-12-31T04:12:31.786Z,11.16
2017-12-31T04:13:33.207Z,11.21
2017-12-31T04:14:34.637Z,11.17
2017-12-31T04:15:36.036Z,11.29
2017-12-31T04:16:38.153Z,11.31
2017-12-31T04:17:39.572Z,11.29
2017-12-31T04:18:40.984Z,11.25
2017-12-31T04:19:42.398Z,11.28
2017-12-31T04:20:43.813Z,11.32
2017-12-31T04:21:45.215Z,11.47
2017-12-31T04:22:46.629Z,11.46
2017-12-31T04:23:48.048Z,11.53
2017-12-31T04:24:49.458Z,11.44
2017-12-31T04:25:50.868Z,11.27
2017-12-31T04:26:52.289Z,11.39
2017-12-31T04:27:53.696Z,11.32
2017-12-31T04:28:55.113Z,11.36
2017-12-31T04:29:56.533Z,11.41
2017-12-31T04:30:57.944Z,11.35
2017-12-31T04:31:59.368Z,11.47
2017-12-31T04:33:00.796Z,11.64
2017-12-31T04:34:02.202Z,11.59
2017-12-31T04:35:03.618Z,11.61
2017-12-31T04:36:05.151Z,11.61
2017-12-31T04:37:06.559Z,11.62
2017-12-31T04:38:07.970Z,11.53
2017-12-31T04:39:09.384Z,11.56
2017-12-31T04:40:10.798Z,11.54
2017-12-31T04:41:12.217Z,11.62
2017-12-31T04:42:13.637Z,11.74
2017-12-31T04:43:15.049Z,11.77
2017-12-31T04:44:16.456Z,11.78
2017-12-31T04:45:17.878Z,11.80
2017-12-31T04:46:19.292Z,11.71
2017-12-31T04:47:20.709Z,11.72
2017-12-31T04:48:22.157Z,11.80
2017-12-31T04:49:23.567Z,11.90
2017-12-31T04:50:24.986Z,12.01
2017-12-31T04:51:26.392Z,11.93
2017-12-31T04:52:27.811Z,12.05
2017-12-31T04:53:29.232Z,12.16
2017-12-31T04:54:30.648Z,12.12
2017-12-31T04:55:32.106Z,12.09
2017-12-31T04:56:33.522Z,12.19
2017-12-31T04:57:34.935Z,12.16
2017-12-31T04:58:36.349Z,12.19
2017-12-31T04:59:37.800Z,12.33
2017-12-31T05:00:39.215Z,12.20
2017-12-31T05:01:41.528Z,12.16
2017-12-31T05:02:42.932Z,12.41
2017-12-31T05:03:44.348Z,12.31
2017-12-31T05:04:45.763Z,12.38
2017-12-31T05:05:47.189Z,12.29
2017-12-31T05:06:48.599Z,12.34
2017-12-31T05:07:50.018Z,12.39
2017-12-31T05:08:51.430Z,12.38
2017-12-31T05:09:52.835Z,12.51
2017-12-31T05:10:54.263Z,12.56
2017-12-31T05:11:55.673Z,12.52
2017-12-31T05:12:57.096Z,12.49
2017-12-31T05:13:58.511Z,12.57
2017-12-31T05:14:59.925Z,12.56
2017-12-31T05:16:01.352Z,12.66
2017-12-31T05:17:02.769Z,12.56
2017-12-31T05:18:04.176Z,12.59
2017-12-31T05:19:05.588Z,12.59
2017-12-31T05:20:07.001Z,12.46
2017-12-31T05:21:08.419Z,12.59
2017-12-31T05:22:09.841Z,12.56
2017-12-31T05:23:11.257Z,12.60
2017-12-31T05:24:12.668Z,12.62
2017-12-31T05:25:14.097Z,12.57
2017-12-31T05:26:15.510Z,12.59
2017-12-31T05:27:16.923Z,12.59
2017-12-31T05:28:18.339Z,12.56
2017-12-31T05:29:20.575Z,12.60
2017-12-31T05:30:21.992Z,12.48
2017-12-31T05:31:23.408Z,12.67
2017-12-31T05:32:24.822Z,12.60
2017-12-31T05:33:26.235Z,12.64
2017-12-31T05:34:27.653Z,12.66
2017-12-31T05:35:29.082Z,12.49
2017-12-31T05:36:30.492Z,12.60
2017-12-31T05:37:31.905Z,12.59
2017-12-31T05:38:33.327Z,12.60
2017-12-31T05:39:34.741Z,12.64
2017-12-31T05:40:36.158Z,12.67
2017-12-31T05:41:37.574Z,12.74
2017-12-31T05:42:38.986Z,12.74
2017-12-31T05:43:40.412Z,12.77
2017-12-31T05:44:41.833Z,12.57
2017-12-31T05:45:43.249Z,12.66
2017-12-31T05:46:44.678Z,12.78
2017-12-31T05:47:46.085Z,12.92
2017-12-31T05:48:47.506Z,12.92
2017-12-31T05:49:48.921Z,12.96
2017-12-31T05:50:50.336Z,12.88
2017-12-31T05:51:51.755Z,12.96
2017-12-31T05:52:53.169Z,12.95
2017-12-31T05:53:54.577Z,12.89
2017-12-31T05:54:55.993Z,12.87
2017-12-31T05:55:57.407Z,12.84
2017-12-31T05:56:58.861Z,12.92
2017-12-31T05:58:00.284Z,12.84
2017-12-31T05:59:01.693Z,12.93
2017-12-31T06:00:03.112Z,12.95
2017-12-31T06:01:04.524Z,12.92
2017-12-31T06:02:05.950Z,12.84
2017-12-31T06:03:07.364Z,12.92
2017-12-31T06:04:08.781Z,12.84
2017-12-31T06:05:10.200Z,12.89
2017-12-31T06:06:11.615Z,12.88
2017-12-31T06:07:13.028Z,12.93
2017-12-31T06:08:14.446Z,12.93
2017-12-31T06:09:15.862Z,12.75
2017-12-31T06:10:17.277Z,12.97
2017-12-31T06:11:18.688Z,12.95
2017-12-31T06:12:20.109Z,12.77
2017-12-31T06:13:21.517Z,12.93
2017-12-31T06:14:22.936Z,12.92
2017-12-31T06:15:24.345Z,12.95
2017-12-31T06:16:25.757Z,12.97
2017-12-31T06:17:27.183Z,13.00
2017-12-31T06:18:28.594Z,12.93
2017-12-31T06:19:30.023Z,12.84
2017-12-31T06:20:31.438Z,12.97
2017-12-31T06:21:32.854Z,12.88
2017-12-31T06:22:34.276Z,13.03
2017-12-31T06:23:35.693Z,12.97
2017-12-31T06:24:37.104Z,12.89
2017-12-31T06:25:38.517Z,12.88
2017-12-31T06:26:39.929Z,12.88
2017-12-31T06:27:41.338Z,12.97
2017-12-31T06:28:42.763Z,12.89
2017-12-31T06:29:44.178Z,12.89
2017-12-31T06:30:45.603Z,12.85
2017-12-31T06:31:47.028Z,12.96
2017-12-31T06:32:48.444Z,12.99
2017-12-31T06:33:49.856Z,12.97
2017-12-31T06:34:51.278Z,12.92
2017-12-31T06:35:52.705Z,12.89
2017-12-31T06:36:54.143Z,12.99
2017-12-31T06:37:55.557Z,12.96
2017-12-31T06:38:56.974Z,12.88
2017-12-31T06:39:58.397Z,13.00
2017-12-31T06:40:59.810Z,12.97
2017-12-31T06:42:01.226Z,12.93
2017-12-31T06:43:02.643Z,12.96
2017-12-31T06:44:04.058Z,12.87
2017-12-31T06:45:05.471Z,12.84
2017-12-31T06:46:06.890Z,12.93
2017-12-31T06:47:08.313Z,12.87
2017-12-31T06:48:09.711Z,12.87
2017-12-31T06:49:11.130Z,12.87
2017-12-31T06:50:12.556Z,12.93
2017-12-31T06:51:13.970Z,12.85
2017-12-31T06:52:15.397Z,12.87
2017-12-31T06:53:16.819Z,12.95
2017-12-31T06:54:18.234Z,12.85
2017-12-31T06:55:19.638Z,12.88
2017-12-31T06:56:21.052Z,12.95
2017-12-31T06:57:22.466Z,13.03
2017-12-31T06:58:23.876Z,12.92
2017-12-31T06:59:25.289Z,12.95
2017-12-31T07:00:26.703Z,12.93
2017-12-31T07:01:28.106Z,13.00
2017-12-31T07:02:29.529Z,12.96
2017-12-31T07:03:30.947Z,13.02
2017-12-31T07:04:32.359Z,12.99
2017-12-31T07:05:33.781Z,12.97
2017-12-31T07:06:35.197Z,12.97
2017-12-31T07:07:36.618Z,13.00
2017-12-31T07:08:38.035Z,13.09
2017-12-31T07:09:39.455Z,13.06
2017-12-31T07:10:40.864Z,12.93
2017-12-31T07:11:42.294Z,12.95
2017-12-31T07:12:43.705Z,12.92
2017-12-31T07:13:45.118Z,12.96
2017-12-31T07:14:46.536Z,12.97
2017-12-31T07:15:47.950Z,12.99
2017-12-31T07:16:49.367Z,13.02
2017-12-31T07:17:50.780Z,12.92
2017-12-31T07:18:52.196Z,12.95
2017-12-31T07:19:53.606Z,12.93
2017-12-31T07:20:55.027Z,13.06
2017-12-31T07:21:56.435Z,13.09
2017-12-31T07:22:57.855Z,13.14
2017-12-31T07:23:59.275Z,13.06
2017-12-31T07:25:00.685Z,13.15
2017-12-31T07:26:02.100Z,13.20
2017-12-31T07:27:03.522Z,13.25
2017-12-31T07:28:04.938Z,13.11
2017-12-31T07:29:06.361Z,13.07
2017-12-31T07:30:07.771Z,13.47
2017-12-31T07:31:09.183Z,13.38
2017-12-31T07:32:10.601Z,13.24
2017-12-31T07:33:12.016Z,13.15
2017-12-31T07:34:13.436Z,13.40
2017-12-31T07:35:14.853Z,13.37
2017-12-31T07:36:16.266Z,13.40
2017-12-31T07:37:17.685Z,13.38
2017-12-31T07:38:20.028Z,13.17
2017-12-31T07:39:21.447Z,13.30
2017-12-31T07:40:22.860Z,13.32
2017-12-31T07:41:24.282Z,13.36
2017-12-31T07:42:25.741Z,13.56
2017-12-31T07:43:27.171Z,13.40
2017-12-31T07:44:28.589Z,13.40
2017-12-31T07:45:30.014Z,13.43
2017-12-31T07:46:31.430Z,13.51
2017-12-31T07:47:32.847Z,13.56
2017-12-31T07:48:34.266Z,13.52
2017-12-31T07:49:35.689Z,13.49
2017-12-31T07:50:37.102Z,13.44
2017-12-31T07:51:38.523Z,13.54
2017-12-31T07:52:39.945Z,13.49
2017-12-31T07:53:41.358Z,13.51
2017-12-31T07:54:42.779Z,13.43
2017-12-31T07:55:44.196Z,13.51
2017-12-31T07:56:45.615Z,13.51
2017-12-31T07:57:47.027Z,13.47
2017-12-31T07:58:48.444Z,13.63
2017-12-31T07:59:49.910Z,13.52
2017-12-31T08:00:51.331Z,13.56
2017-12-31T08:01:52.752Z,13.69
2017-12-31T08:02:54.176Z,13.71
2017-12-31T08:03:55.597Z,13.58
2017-12-31T08:04:57.020Z,13.67
2017-12-31T08:05:58.447Z,13.61
2017-12-31T08:06:59.869Z,13.63
2017-12-31T08:08:01.286Z,13.70
2017-12-31T08:09:02.699Z,13.71
2017-12-31T08:10:04.132Z,13.67
2017-12-31T08:11:05.553Z,13.70
2017-12-31T08:12:06.962Z,13.81
2017-12-31T08:13:08.382Z,13.59
2017-12-31T08:14:09.796Z,13.51
2017-12-31T08:15:11.220Z,13.46
2017-12-31T08:16:12.632Z,13.59
2017-12-31T08:17:14.049Z,13.49
2017-12-31T08:18:15.463Z,13.49
2017-12-31T08:19:16.891Z,13.46
2017-12-31T08:20:18.307Z,13.49
2017-12-31T08:21:19.730Z,13.46
2017-12-31T08:22:21.151Z,13.56
2017-12-31T08:23:22.565Z,13.54
2017-12-31T08:24:23.981Z,13.41
2017-12-31T08:25:25.401Z,13.47
2017-12-31T08:26:26.822Z,13.40
2017-12-31T08:27:28.238Z,13.56
2017-12-31T08:28:29.709Z,13.49
2017-12-31T08:29:31.072Z,13.54
2017-12-31T08:30:32.486Z,13.56
2017-12-31T08:31:33.907Z,13.49
2017-12-31T08:32:35.329Z,13.59
2017-12-31T08:33:36.746Z,13.58
2017-12-31T08:34:38.165Z,13.51
2017-12-31T08:35:39.580Z,13.56
2017-12-31T08:36:41.001Z,13.62
2017-12-31T08:37:42.420Z,13.56
2017-12-31T08:38:43.838Z,13.54
2017-12-31T08:39:45.257Z,13.55
2017-12-31T08:40:46.679Z,13.52
2017-12-31T08:41:48.086Z,13.49
2017-12-31T08:42:49.505Z,13.52
2017-12-31T08:43:50.919Z,13.62
2017-12-31T08:44:52.361Z,13.49
2017-12-31T08:45:53.781Z,13.49
2017-12-31T08:46:55.208Z,13.55
2017-12-31T08:47:56.628Z,13.51
2017-12-31T08:48:58.043Z,13.49
2017-12-31T08:49:59.455Z,13.58
2017-12-31T08:51:00.868Z,13.62
2017-12-31T08:52:02.297Z,13.54
2017-12-31T08:53:03.745Z,13.73
2017-12-31T08:54:05.163Z,13.65
2017-12-31T08:55:06.573Z,13.63
2017-12-31T08:56:07.998Z,13.62
2017-12-31T08:57:09.421Z,13.65
2017-12-31T08:58:10.835Z,13.55
2017-12-31T08:59:12.261Z,13.69
2017-12-31T09:00:13.684Z,13.62
2017-12-31T09:01:15.094Z,13.65
2017-12-31T09:02:16.546Z,13.76
2017-12-31T09:03:17.930Z,13.77
2017-12-31T09:04:19.352Z,13.61
2017-12-31T09:05:20.774Z,13.69
2017-12-31T09:06:22.189Z,13.83
2017-12-31T09:07:23.614Z,13.83
2017-12-31T09:08:25.036Z,13.77
2017-12-31T09:09:26.453Z,13.84
2017-12-31T09:10:27.904Z,13.58
2017-12-31T09:11:29.323Z,13.84
2017-12-31T09:12:30.750Z,13.80
2017-12-31T09:13:32.169Z,13.88
2017-12-31T09:14:33.590Z,13.84
2017-12-31T09:15:35.009Z,13.88
2017-12-31T09:16:36.455Z,14.01
2017-12-31T09:17:37.903Z,13.98
2017-12-31T09:18:39.310Z,13.92
2017-12-31T09:19:40.735Z,13.99
2017-12-31T09:20:42.148Z,13.95
2017-12-31T09:21:43.573Z,14.07
2017-12-31T09:22:44.985Z,14.07
2017-12-31T09:23:46.425Z,13.95
2017-12-31T09:24:47.835Z,14.29
2017-12-31T09:25:49.258Z,14.60
2017-12-31T09:26:50.670Z,14.67
2017-12-31T09:27:52.091Z,14.68
2017-12-31T09:28:53.501Z,14.80
2017-12-31T09:29:54.928Z,14.81
2017-12-31T09:30:56.345Z,14.98
2017-12-31T09:31:57.774Z,14.84
2017-12-31T09:32:59.213Z,14.90
2017-12-31T09:34:00.630Z,14.88
2017-12-31T09:35:02.056Z,14.52
2017-12-31T09:36:03.478Z,14.56
2017-12-31T09:37:04.907Z,14.29
2017-12-31T09:38:06.330Z,14.57
2017-12-31T09:39:07.751Z,14.25
2017-12-31T09:40:09.190Z,14.34
2017-12-31T09:41:10.613Z,14.42
2017-12-31T09:42:12.036Z,14.21
2017-12-31T09:43:13.482Z,14.32
2017-12-31T09:44:14.896Z,14.38
2017-12-31T09:45:16.320Z,14.31
2017-12-31T09:46:17.740Z,14.14
2017-12-31T09:47:19.192Z,14.21
2017-12-31T09:48:20.606Z,14.32
2017-12-31T09:49:22.030Z,14.34
2017-12-31T09:50:23.467Z,14.20
2017-12-31T09:51:24.890Z,14.09
2017-12-31T09:52:26.305Z,14.17
2017-12-31T09:53:27.732Z,14.19
2017-12-31T09:54:29.690Z,14.20
2017-12-31T09:55:31.114Z,14.32
2017-12-31T09:56:32.530Z,14.34
2017-12-31T09:57:33.941Z,14.31
2017-12-31T09:58:35.364Z,14.38
2017-12-31T09:59:36.778Z,14.32
2017-12-31T10:00:38.204Z,14.31
2017-12-31T10:01:39.629Z,14.31
2017-12-31T10:02:41.052Z,14.35
2017-12-31T10:03:42.474Z,14.32
2017-12-31T10:04:43.895Z,14.34
2017-12-31T10:05:45.315Z,14.31
2017-12-31T10:06:46.743Z,14.38
2017-12-31T10:07:48.251Z,14.25
2017-12-31T10:08:49.675Z,14.34
2017-12-31T10:09:51.102Z,14.38
2017-12-31T10:10:52.533Z,14.39
2017-12-31T10:11:53.949Z,14.42
2017-12-31T10:12:55.369Z,14.32
2017-12-31T10:13:56.789Z,14.34
2017-12-31T10:14:58.299Z,14.47
2017-12-31T10:15:59.712Z,14.46
2017-12-31T10:17:01.182Z,14.50
2017-12-31T10:18:02.570Z,14.52
2017-12-31T10:19:04.001Z,14.46
2017-12-31T10:20:05.417Z,14.53
2017-12-31T10:21:06.841Z,14.46
2017-12-31T10:22:08.369Z,14.43
2017-12-31T10:23:09.791Z,14.52
2017-12-31T10:24:11.209Z,14.61
2017-12-31T10:25:12.629Z,14.57
2017-12-31T10:26:14.048Z,14.43
2017-12-31T10:27:15.473Z,14.54
2017-12-31T10:28:16.895Z,14.54
2017-12-31T10:29:18.316Z,14.53
2017-12-31T10:30:20.263Z,14.60
2017-12-31T10:31:21.701Z,14.52
2017-12-31T10:32:23.127Z,14.61
2017-12-31T10:33:28.277Z,14.65
2017-12-31T10:34:30.693Z,14.61
2017-12-31T10:35:32.628Z,14.57
2017-12-31T10:36:34.912Z,14.65
2017-12-31T10:37:37.132Z,14.67
2017-12-31T10:38:39.331Z,14.69
2017-12-31T10:39:41.521Z,14.68
2017-12-31T10:40:44.753Z,14.72
2017-12-31T10:41:46.780Z,14.68
2017-12-31T10:42:48.867Z,14.71
2017-12-31T10:43:51.130Z,14.64
2017-12-31T10:44:53.104Z,14.78
2017-12-31T10:45:55.463Z,14.67
2017-12-31T10:46:57.650Z,14.80
2017-12-31T10:47:59.393Z,14.94
2017-12-31T10:49:02.482Z,14.87
2017-12-31T10:50:04.638Z,14.91
2017-12-31T10:51:10.623Z,14.95
2017-12-31T10:52:12.415Z,14.95
2017-12-31T10:53:17.842Z,14.86
2017-12-31T10:54:19.491Z,14.94
2017-12-31T10:55:21.360Z,14.86
2017-12-31T10:56:26.896Z,14.88
2017-12-31T10:57:34.002Z,14.95
2017-12-31T10:58:37.030Z,14.95
2017-12-31T10:59:40.188Z,14.95
2017-12-31T11:00:44.328Z,14.83
2017-12-31T11:01:47.184Z,15.08
2017-12-31T11:02:50.506Z,15.02
2017-12-31T11:03:53.653Z,14.93
2017-12-31T11:04:56.744Z,15.03
2017-12-31T11:06:01.385Z,14.98
2017-12-31T11:07:08.137Z,14.84
2017-12-31T11:08:11.866Z,14.71
2017-12-31T11:09:15.133Z,14.78
2017-12-31T11:10:21.036Z,14.80
2017-12-31T23:30:49.898Z,10.21
2017-12-31T23:31:54.878Z,10.25
2017-12-31T23:33:02.528Z,10.21
2017-12-31T23:34:06.142Z,10.18
2017-12-31T23:35:10.068Z,10.07
2017-12-31T23:36:15.968Z,10.18
2017-12-31T23:37:18.857Z,10.18
2017-12-31T23:38:22.527Z,10.01
2017-12-31T23:39:25.022Z,9.97
2017-12-31T23:40:28.278Z,9.81
2017-12-31T23:41:32.586Z,9.88
2017-12-31T23:42:34.738Z,9.83
2017-12-31T23:43:39.562Z,9.85
2017-12-31T23:44:42.021Z,9.67
2017-12-31T23:45:44.464Z,9.78
2017-12-31T23:46:46.936Z,9.81
2017-12-31T23:47:53.783Z,9.86
2017-12-31T23:48:55.565Z,9.86
2017-12-31T23:49:57.497Z,9.82
2017-12-31T23:50:59.855Z,9.61
2017-12-31T23:52:02.637Z,9.76
2017-12-31T23:53:05.674Z,9.82
2017-12-31T23:54:07.915Z,9.70
2017-12-31T23:55:14.129Z,9.66
2017-12-31T23:56:17.943Z,9.50
2017-12-31T23:57:21.078Z,9.57
2017-12-31T23:58:24.514Z,9.49
2017-12-31T23:59:30.666Z,9.45
